sensor_id;sensor_type;location;lat;lon;timestamp;temperature;humidity
13174;DHT22;6652;48.802;9.190;2023-04-25T00:02:11;9.70;99.90
13174;DHT22;6652;48.802;9.190;2023-04-25T00:08:32;9.70;99.90
13174;DHT22;6652;48.802;9.190;2023-04-25T00:11:30;9.70;99.90
13174;DHT22;6652;48.802;9.190;2023-04-25T00:14:13;9.70;99.90
13174;DHT22;6652;48.802;9.190;2023-04-25T00:17:05;9.70;99.90
13174;DHT22;6652;48.802;9.190;2023-04-25T00:19:53;9.70;99.90
13174;DHT22;6652;48.802;9.190;2023-04-25T00:23:19;9.70;99.90
13174;DHT22;6652;48.802;9.190;2023-04-25T00:35:58;9.70;99.90
13174;DHT22;6652;48.802;9.190;2023-04-25T00:39:07;9.70;99.90
13174;DHT22;6652;48.802;9.190;2023-04-25T00:45:37;10.00;99.90
13174;DHT22;6652;48.802;9.190;2023-04-25T00:52:39;9.60;99.90
13174;DHT22;6652;48.802;9.190;2023-04-25T00:55:31;9.60;99.90
13174;DHT22;6652;48.802;9.190;2023-04-25T01:01:26;9.50;99.90
13174;DHT22;6652;48.802;9.190;2023-04-25T01:04:56;9.50;99.90
13174;DHT22;6652;48.802;9.190;2023-04-25T01:07:40;9.50;99.90
13174;DHT22;6652;48.802;9.190;2023-04-25T01:11:08;9.50;99.90
13174;DHT22;6652;48.802;9.190;2023-04-25T01:17:00;9.50;99.90
13174;DHT22;6652;48.802;9.190;2023-04-25T01:26:07;9.50;99.90
13174;DHT22;6652;48.802;9.190;2023-04-25T01:29:22;9.60;99.90
13174;DHT22;6652;48.802;9.190;2023-04-25T01:32:14;9.60;99.90
13174;DHT22;6652;48.802;9.190;2023-04-25T01:35:09;9.50;99.90
13174;DHT22;6652;48.802;9.190;2023-04-25T01:41:31;9.50;99.90
13174;DHT22;6652;48.802;9.190;2023-04-25T01:44:17;9.40;99.90
13174;DHT22;6652;48.802;9.190;2023-04-25T01:50:43;9.40;99.90
13174;DHT22;6652;48.802;9.190;2023-04-25T01:53:26;9.30;99.90
13174;DHT22;6652;48.802;9.190;2023-04-25T01:57:06;10.10;99.90
13174;DHT22;6652;48.802;9.190;2023-04-25T01:59:50;9.30;99.90
13174;DHT22;6652;48.802;9.190;2023-04-25T02:06:19;9.30;99.90
13174;DHT22;6652;48.802;9.190;2023-04-25T02:12:46;9.30;99.90
13174;DHT22;6652;48.802;9.190;2023-04-25T02:19:00;9.30;99.90
13174;DHT22;6652;48.802;9.190;2023-04-25T02:21:52;9.20;99.90
13174;DHT22;6652;48.802;9.190;2023-04-25T02:29:03;9.80;99.90
13174;DHT22;6652;48.802;9.190;2023-04-25T02:31:32;9.40;99.90
13174;DHT22;6652;48.802;9.190;2023-04-25T02:34:36;9.30;99.90
13174;DHT22;6652;48.802;9.190;2023-04-25T02:37:58;9.40;99.90
13174;DHT22;6652;48.802;9.190;2023-04-25T02:43:45;9.20;99.90
13174;DHT22;6652;48.802;9.190;2023-04-25T02:53:51;9.10;99.90
13174;DHT22;6652;48.802;9.190;2023-04-25T03:00:34;9.10;99.90
13174;DHT22;6652;48.802;9.190;2023-04-25T03:03:37;9.80;99.90
13174;DHT22;6652;48.802;9.190;2023-04-25T03:06:51;9.10;99.90
13174;DHT22;6652;48.802;9.190;2023-04-25T03:09:41;9.10;99.90
13174;DHT22;6652;48.802;9.190;2023-04-25T03:12:37;9.20;99.90
13174;DHT22;6652;48.802;9.190;2023-04-25T03:15:17;9.20;99.90
13174;DHT22;6652;48.802;9.190;2023-04-25T03:18:21;9.20;99.90
13174;DHT22;6652;48.802;9.190;2023-04-25T03:21:30;9.20;99.90
13174;DHT22;6652;48.802;9.190;2023-04-25T03:24:33;9.20;99.90
13174;DHT22;6652;48.802;9.190;2023-04-25T03:27:19;9.20;99.90
13174;DHT22;6652;48.802;9.190;2023-04-25T03:30:09;9.20;99.90
13174;DHT22;6652;48.802;9.190;2023-04-25T03:36:26;9.10;99.90
13174;DHT22;6652;48.802;9.190;2023-04-25T03:42:16;9.20;99.90
13174;DHT22;6652;48.802;9.190;2023-04-25T03:45:02;9.00;99.90
13174;DHT22;6652;48.802;9.190;2023-04-25T03:50:51;9.30;99.90
13174;DHT22;6652;48.802;9.190;2023-04-25T03:56:42;9.20;99.90
13174;DHT22;6652;48.802;9.190;2023-04-25T04:00:08;9.20;99.90
13174;DHT22;6652;48.802;9.190;2023-04-25T04:02:41;9.20;99.90
13174;DHT22;6652;48.802;9.190;2023-04-25T04:09:02;9.10;99.90
13174;DHT22;6652;48.802;9.190;2023-04-25T04:11:54;9.10;99.90
13174;DHT22;6652;48.802;9.190;2023-04-25T04:14:39;9.00;99.90
13174;DHT22;6652;48.802;9.190;2023-04-25T04:17:12;8.50;99.90
13174;DHT22;6652;48.802;9.190;2023-04-25T04:19:54;9.00;99.90
13174;DHT22;6652;48.802;9.190;2023-04-25T04:22:48;9.10;99.90
13174;DHT22;6652;48.802;9.190;2023-04-25T04:25:23;8.90;99.90
13174;DHT22;6652;48.802;9.190;2023-04-25T04:28:02;10.00;99.90
13174;DHT22;6652;48.802;9.190;2023-04-25T04:30:35;8.90;99.90
13174;DHT22;6652;48.802;9.190;2023-04-25T04:33:12;8.80;99.90
13174;DHT22;6652;48.802;9.190;2023-04-25T04:35:57;8.80;99.90
13174;DHT22;6652;48.802;9.190;2023-04-25T04:38:31;8.80;99.90
13174;DHT22;6652;48.802;9.190;2023-04-25T04:41:18;8.80;99.90
13174;DHT22;6652;48.802;9.190;2023-04-25T04:44:15;9.00;99.90
13174;DHT22;6652;48.802;9.190;2023-04-25T04:47:04;9.10;99.90
13174;DHT22;6652;48.802;9.190;2023-04-25T04:49:51;8.80;99.90
13174;DHT22;6652;48.802;9.190;2023-04-25T04:52:22;9.10;99.90
13174;DHT22;6652;48.802;9.190;2023-04-25T04:55:04;9.20;99.90
13174;DHT22;6652;48.802;9.190;2023-04-25T04:57:43;9.10;99.90
13174;DHT22;6652;48.802;9.190;2023-04-25T05:00:23;9.20;99.90
13174;DHT22;6652;48.802;9.190;2023-04-25T05:03:09;9.20;99.90
13174;DHT22;6652;48.802;9.190;2023-04-25T05:05:59;9.10;99.90
13174;DHT22;6652;48.802;9.190;2023-04-25T05:08:33;9.30;99.90
13174;DHT22;6652;48.802;9.190;2023-04-25T05:11:08;9.30;99.90
13174;DHT22;6652;48.802;9.190;2023-04-25T05:13:36;9.30;99.90
13174;DHT22;6652;48.802;9.190;2023-04-25T05:16:15;10.00;99.90
13174;DHT22;6652;48.802;9.190;2023-04-25T05:19:01;9.40;99.90
13174;DHT22;6652;48.802;9.190;2023-04-25T05:21:35;9.40;99.90
13174;DHT22;6652;48.802;9.190;2023-04-25T05:24:03;9.60;99.90
13174;DHT22;6652;48.802;9.190;2023-04-25T05:26:41;9.60;99.90
13174;DHT22;6652;48.802;9.190;2023-04-25T05:29:19;10.80;99.90
13174;DHT22;6652;48.802;9.190;2023-04-25T05:31:49;9.90;99.90
13174;DHT22;6652;48.802;9.190;2023-04-25T05:34:19;10.10;99.90
13174;DHT22;6652;48.802;9.190;2023-04-25T05:36:46;9.90;99.90
13174;DHT22;6652;48.802;9.190;2023-04-25T05:39:23;9.90;99.90
13174;DHT22;6652;48.802;9.190;2023-04-25T05:42:00;9.80;99.90
13174;DHT22;6652;48.802;9.190;2023-04-25T05:44:32;9.70;99.90
13174;DHT22;6652;48.802;9.190;2023-04-25T05:47:00;9.90;99.90
13174;DHT22;6652;48.802;9.190;2023-04-25T05:49:59;9.80;99.90
13174;DHT22;6652;48.802;9.190;2023-04-25T05:52:35;9.70;99.90
13174;DHT22;6652;48.802;9.190;2023-04-25T05:55:20;9.80;99.90
13174;DHT22;6652;48.802;9.190;2023-04-25T05:58:20;9.80;99.90
13174;DHT22;6652;48.802;9.190;2023-04-25T06:01:13;9.90;99.90
13174;DHT22;6652;48.802;9.190;2023-04-25T06:03:40;9.80;99.90
13174;DHT22;6652;48.802;9.190;2023-04-25T06:06:08;9.90;99.90
13174;DHT22;6652;48.802;9.190;2023-04-25T06:08:37;9.80;99.90
13174;DHT22;6652;48.802;9.190;2023-04-25T06:11:04;9.70;99.90
13174;DHT22;6652;48.802;9.190;2023-04-25T06:13:31;9.70;99.90
13174;DHT22;6652;48.802;9.190;2023-04-25T06:15:58;9.70;99.90
13174;DHT22;6652;48.802;9.190;2023-04-25T06:18:26;9.70;99.90
13174;DHT22;6652;48.802;9.190;2023-04-25T06:20:53;9.70;99.90
13174;DHT22;6652;48.802;9.190;2023-04-25T06:23:20;9.80;99.90
13174;DHT22;6652;48.802;9.190;2023-04-25T06:25:46;9.80;99.90
13174;DHT22;6652;48.802;9.190;2023-04-25T06:28:13;10.00;99.90
13174;DHT22;6652;48.802;9.190;2023-04-25T06:30:41;10.10;99.90
13174;DHT22;6652;48.802;9.190;2023-04-25T06:33:08;10.20;99.90
13174;DHT22;6652;48.802;9.190;2023-04-25T06:35:36;10.30;99.90
13174;DHT22;6652;48.802;9.190;2023-04-25T06:38:03;10.40;99.90
13174;DHT22;6652;48.802;9.190;2023-04-25T06:40:30;10.50;99.90
13174;DHT22;6652;48.802;9.190;2023-04-25T06:42:56;10.70;99.90
13174;DHT22;6652;48.802;9.190;2023-04-25T06:45:23;10.80;99.90
13174;DHT22;6652;48.802;9.190;2023-04-25T06:47:50;11.00;99.90
13174;DHT22;6652;48.802;9.190;2023-04-25T06:50:17;11.10;99.90
13174;DHT22;6652;48.802;9.190;2023-04-25T06:52:45;11.10;99.90
13174;DHT22;6652;48.802;9.190;2023-04-25T06:55:12;11.60;99.90
13174;DHT22;6652;48.802;9.190;2023-04-25T06:57:39;11.40;99.90
13174;DHT22;6652;48.802;9.190;2023-04-25T07:00:06;11.50;99.90
13174;DHT22;6652;48.802;9.190;2023-04-25T07:02:35;11.50;99.90
13174;DHT22;6652;48.802;9.190;2023-04-25T07:05:02;11.30;99.90
13174;DHT22;6652;48.802;9.190;2023-04-25T07:07:29;11.30;99.90
13174;DHT22;6652;48.802;9.190;2023-04-25T07:09:57;11.20;99.90
13174;DHT22;6652;48.802;9.190;2023-04-25T07:12:24;11.10;99.90
13174;DHT22;6652;48.802;9.190;2023-04-25T07:14:51;11.10;99.90
13174;DHT22;6652;48.802;9.190;2023-04-25T07:17:18;11.10;99.90
13174;DHT22;6652;48.802;9.190;2023-04-25T07:19:44;11.00;99.90
13174;DHT22;6652;48.802;9.190;2023-04-25T07:22:11;10.90;99.90
13174;DHT22;6652;48.802;9.190;2023-04-25T07:24:38;10.90;99.90
13174;DHT22;6652;48.802;9.190;2023-04-25T07:27:06;10.90;99.90
13174;DHT22;6652;48.802;9.190;2023-04-25T07:29:33;10.80;99.90
13174;DHT22;6652;48.802;9.190;2023-04-25T07:32:02;10.80;99.90
13174;DHT22;6652;48.802;9.190;2023-04-25T07:34:29;10.70;99.90
13174;DHT22;6652;48.802;9.190;2023-04-25T07:36:57;10.70;99.90
13174;DHT22;6652;48.802;9.190;2023-04-25T07:39:25;10.70;99.90
13174;DHT22;6652;48.802;9.190;2023-04-25T07:41:51;10.70;99.90
13174;DHT22;6652;48.802;9.190;2023-04-25T07:44:20;10.60;99.90
13174;DHT22;6652;48.802;9.190;2023-04-25T07:46:46;10.60;99.90
13174;DHT22;6652;48.802;9.190;2023-04-25T07:49:13;10.60;99.90
13174;DHT22;6652;48.802;9.190;2023-04-25T07:51:40;10.60;99.90
13174;DHT22;6652;48.802;9.190;2023-04-25T07:54:08;10.50;99.90
13174;DHT22;6652;48.802;9.190;2023-04-25T07:56:35;10.50;99.90
13174;DHT22;6652;48.802;9.190;2023-04-25T07:59:02;10.50;99.90
13174;DHT22;6652;48.802;9.190;2023-04-25T08:01:30;10.60;99.90
13174;DHT22;6652;48.802;9.190;2023-04-25T08:03:57;10.60;99.90
13174;DHT22;6652;48.802;9.190;2023-04-25T08:06:24;10.50;99.90
13174;DHT22;6652;48.802;9.190;2023-04-25T08:08:50;10.40;99.90
13174;DHT22;6652;48.802;9.190;2023-04-25T08:11:17;10.40;99.90
13174;DHT22;6652;48.802;9.190;2023-04-25T08:13:44;10.40;99.90
13174;DHT22;6652;48.802;9.190;2023-04-25T08:16:11;10.40;99.90
13174;DHT22;6652;48.802;9.190;2023-04-25T08:18:39;10.40;99.90
13174;DHT22;6652;48.802;9.190;2023-04-25T08:21:06;10.50;99.90
13174;DHT22;6652;48.802;9.190;2023-04-25T08:23:34;10.60;99.90
13174;DHT22;6652;48.802;9.190;2023-04-25T08:26:01;10.70;99.90
13174;DHT22;6652;48.802;9.190;2023-04-25T08:28:28;10.70;99.90
13174;DHT22;6652;48.802;9.190;2023-04-25T08:30:55;10.70;99.90
13174;DHT22;6652;48.802;9.190;2023-04-25T08:33:22;10.70;99.90
13174;DHT22;6652;48.802;9.190;2023-04-25T08:35:50;10.60;99.90
13174;DHT22;6652;48.802;9.190;2023-04-25T08:38:17;10.50;99.90
13174;DHT22;6652;48.802;9.190;2023-04-25T08:40:48;10.50;99.90
13174;DHT22;6652;48.802;9.190;2023-04-25T08:43:18;10.40;99.90
13174;DHT22;6652;48.802;9.190;2023-04-25T08:45:45;10.40;99.90
13174;DHT22;6652;48.802;9.190;2023-04-25T08:48:13;10.40;99.90
13174;DHT22;6652;48.802;9.190;2023-04-25T08:50:45;10.40;99.90
13174;DHT22;6652;48.802;9.190;2023-04-25T08:53:14;10.30;99.90
13174;DHT22;6652;48.802;9.190;2023-04-25T08:55:46;10.20;99.90
13174;DHT22;6652;48.802;9.190;2023-04-25T08:58:13;10.20;99.90
13174;DHT22;6652;48.802;9.190;2023-04-25T09:00:40;10.20;99.90
13174;DHT22;6652;48.802;9.190;2023-04-25T09:03:06;10.20;99.90
13174;DHT22;6652;48.802;9.190;2023-04-25T09:05:34;10.20;99.90
13174;DHT22;6652;48.802;9.190;2023-04-25T09:08:01;10.30;99.90
13174;DHT22;6652;48.802;9.190;2023-04-25T09:10:29;10.20;99.90
13174;DHT22;6652;48.802;9.190;2023-04-25T09:13:03;10.30;99.90
13174;DHT22;6652;48.802;9.190;2023-04-25T09:15:31;10.20;99.90
13174;DHT22;6652;48.802;9.190;2023-04-25T09:17:59;10.20;99.90
13174;DHT22;6652;48.802;9.190;2023-04-25T09:20:26;10.30;99.90
13174;DHT22;6652;48.802;9.190;2023-04-25T09:23:03;10.20;99.90
13174;DHT22;6652;48.802;9.190;2023-04-25T09:25:35;10.20;99.90
13174;DHT22;6652;48.802;9.190;2023-04-25T09:28:05;10.10;99.90
13174;DHT22;6652;48.802;9.190;2023-04-25T09:30:34;10.10;99.90
13174;DHT22;6652;48.802;9.190;2023-04-25T09:33:05;10.00;99.90
13174;DHT22;6652;48.802;9.190;2023-04-25T09:35:36;10.00;99.90
13174;DHT22;6652;48.802;9.190;2023-04-25T09:38:08;9.90;99.90
13174;DHT22;6652;48.802;9.190;2023-04-25T09:40:40;9.90;99.90
13174;DHT22;6652;48.802;9.190;2023-04-25T09:43:10;9.90;99.90
13174;DHT22;6652;48.802;9.190;2023-04-25T09:45:41;9.90;99.90
13174;DHT22;6652;48.802;9.190;2023-04-25T09:48:11;9.90;99.90
13174;DHT22;6652;48.802;9.190;2023-04-25T09:50:38;9.80;99.90
13174;DHT22;6652;48.802;9.190;2023-04-25T09:53:06;9.60;99.90
13174;DHT22;6652;48.802;9.190;2023-04-25T09:55:34;9.20;99.90
13174;DHT22;6652;48.802;9.190;2023-04-25T09:58:05;9.00;99.90
13174;DHT22;6652;48.802;9.190;2023-04-25T10:00:33;8.80;99.90
13174;DHT22;6652;48.802;9.190;2023-04-25T10:03:01;8.50;99.90
13174;DHT22;6652;48.802;9.190;2023-04-25T10:05:30;8.60;99.90
13174;DHT22;6652;48.802;9.190;2023-04-25T10:08:00;8.60;99.90
13174;DHT22;6652;48.802;9.190;2023-04-25T10:10:30;8.60;99.90
13174;DHT22;6652;48.802;9.190;2023-04-25T10:13:04;8.70;99.90
13174;DHT22;6652;48.802;9.190;2023-04-25T10:15:34;8.70;99.90
13174;DHT22;6652;48.802;9.190;2023-04-25T10:18:02;8.70;99.90
13174;DHT22;6652;48.802;9.190;2023-04-25T10:20:29;8.80;99.90
13174;DHT22;6652;48.802;9.190;2023-04-25T10:23:02;8.70;99.90
13174;DHT22;6652;48.802;9.190;2023-04-25T10:25:30;8.80;99.90
13174;DHT22;6652;48.802;9.190;2023-04-25T10:27:59;8.90;99.90
13174;DHT22;6652;48.802;9.190;2023-04-25T10:30:27;8.90;99.90
13174;DHT22;6652;48.802;9.190;2023-04-25T10:32:55;8.90;99.90
13174;DHT22;6652;48.802;9.190;2023-04-25T10:35:25;9.00;99.90
13174;DHT22;6652;48.802;9.190;2023-04-25T10:38:00;9.10;99.90
13174;DHT22;6652;48.802;9.190;2023-04-25T10:40:29;9.00;99.90
13174;DHT22;6652;48.802;9.190;2023-04-25T10:46:00;9.10;99.90
13174;DHT22;6652;48.802;9.190;2023-04-25T10:48:28;9.00;99.90
13174;DHT22;6652;48.802;9.190;2023-04-25T10:51:07;8.90;99.90
13174;DHT22;6652;48.802;9.190;2023-04-25T10:53:34;8.90;99.90
13174;DHT22;6652;48.802;9.190;2023-04-25T10:56:09;8.80;99.90
13174;DHT22;6652;48.802;9.190;2023-04-25T10:58:41;8.90;99.90
13174;DHT22;6652;48.802;9.190;2023-04-25T11:01:09;8.90;99.90
13174;DHT22;6652;48.802;9.190;2023-04-25T11:03:40;8.90;99.90
13174;DHT22;6652;48.802;9.190;2023-04-25T11:06:12;8.90;99.90
13174;DHT22;6652;48.802;9.190;2023-04-25T11:08:48;9.00;99.90
13174;DHT22;6652;48.802;9.190;2023-04-25T11:11:15;9.00;99.90
13174;DHT22;6652;48.802;9.190;2023-04-25T11:13:42;9.00;99.90
13174;DHT22;6652;48.802;9.190;2023-04-25T11:16:10;9.10;99.90
13174;DHT22;6652;48.802;9.190;2023-04-25T11:18:37;9.10;99.90
13174;DHT22;6652;48.802;9.190;2023-04-25T11:21:04;9.20;99.90
13174;DHT22;6652;48.802;9.190;2023-04-25T11:23:31;9.40;99.90
13174;DHT22;6652;48.802;9.190;2023-04-25T11:25:58;9.40;99.90
13174;DHT22;6652;48.802;9.190;2023-04-25T11:28:26;9.60;99.90
13174;DHT22;6652;48.802;9.190;2023-04-25T11:30:53;9.70;99.90
13174;DHT22;6652;48.802;9.190;2023-04-25T11:33:24;9.80;99.90
13174;DHT22;6652;48.802;9.190;2023-04-25T11:35:53;9.80;99.90
13174;DHT22;6652;48.802;9.190;2023-04-25T11:38:22;9.90;99.90
13174;DHT22;6652;48.802;9.190;2023-04-25T11:40:52;10.10;99.90
13174;DHT22;6652;48.802;9.190;2023-04-25T11:43:20;10.20;99.90
13174;DHT22;6652;48.802;9.190;2023-04-25T11:45:48;10.30;99.90
13174;DHT22;6652;48.802;9.190;2023-04-25T11:48:16;10.40;99.90
13174;DHT22;6652;48.802;9.190;2023-04-25T11:50:44;10.50;99.90
13174;DHT22;6652;48.802;9.190;2023-04-25T11:53:11;10.50;99.90
13174;DHT22;6652;48.802;9.190;2023-04-25T11:55:38;10.60;99.90
13174;DHT22;6652;48.802;9.190;2023-04-25T11:58:05;10.50;99.90
13174;DHT22;6652;48.802;9.190;2023-04-25T12:00:32;10.60;99.90
13174;DHT22;6652;48.802;9.190;2023-04-25T12:02:59;10.60;99.90
13174;DHT22;6652;48.802;9.190;2023-04-25T12:05:30;10.70;99.90
13174;DHT22;6652;48.802;9.190;2023-04-25T12:08:27;10.90;99.90
13174;DHT22;6652;48.802;9.190;2023-04-25T12:10:58;11.00;99.90
13174;DHT22;6652;48.802;9.190;2023-04-25T12:13:28;11.10;99.90
13174;DHT22;6652;48.802;9.190;2023-04-25T12:16:01;11.30;99.90
13174;DHT22;6652;48.802;9.190;2023-04-25T12:18:37;11.20;99.90
13174;DHT22;6652;48.802;9.190;2023-04-25T12:21:12;11.10;99.90
13174;DHT22;6652;48.802;9.190;2023-04-25T12:23:53;11.00;99.90
13174;DHT22;6652;48.802;9.190;2023-04-25T12:26:59;10.90;99.90
13174;DHT22;6652;48.802;9.190;2023-04-25T12:29:36;11.30;99.90
13174;DHT22;6652;48.802;9.190;2023-04-25T12:32:04;10.60;99.90
13174;DHT22;6652;48.802;9.190;2023-04-25T12:34:35;10.50;99.90
13174;DHT22;6652;48.802;9.190;2023-04-25T12:37:03;10.40;99.90
13174;DHT22;6652;48.802;9.190;2023-04-25T12:39:33;10.30;99.90
13174;DHT22;6652;48.802;9.190;2023-04-25T12:42:03;10.40;99.90
13174;DHT22;6652;48.802;9.190;2023-04-25T12:44:33;10.60;99.90
13174;DHT22;6652;48.802;9.190;2023-04-25T12:47:00;10.80;99.90
13174;DHT22;6652;48.802;9.190;2023-04-25T12:49:36;11.10;99.90
13174;DHT22;6652;48.802;9.190;2023-04-25T12:52:03;11.20;99.90
13174;DHT22;6652;48.802;9.190;2023-04-25T12:54:32;11.70;99.90
13174;DHT22;6652;48.802;9.190;2023-04-25T12:57:12;12.10;99.90
13174;DHT22;6652;48.802;9.190;2023-04-25T12:59:45;12.40;99.90
13174;DHT22;6652;48.802;9.190;2023-04-25T13:02:12;12.80;99.90
13174;DHT22;6652;48.802;9.190;2023-04-25T13:04:47;12.80;99.90
13174;DHT22;6652;48.802;9.190;2023-04-25T13:07:14;12.80;99.90
13174;DHT22;6652;48.802;9.190;2023-04-25T13:09:49;12.70;99.90
13174;DHT22;6652;48.802;9.190;2023-04-25T13:12:16;12.70;99.90
13174;DHT22;6652;48.802;9.190;2023-04-25T13:14:43;12.50;99.90
13174;DHT22;6652;48.802;9.190;2023-04-25T13:17:11;12.60;99.90
13174;DHT22;6652;48.802;9.190;2023-04-25T13:19:38;12.70;99.90
13174;DHT22;6652;48.802;9.190;2023-04-25T13:22:05;12.70;99.90
13174;DHT22;6652;48.802;9.190;2023-04-25T13:24:33;12.60;99.90
13174;DHT22;6652;48.802;9.190;2023-04-25T13:27:01;12.60;99.90
13174;DHT22;6652;48.802;9.190;2023-04-25T13:29:32;12.80;99.90
13174;DHT22;6652;48.802;9.190;2023-04-25T13:32:03;12.90;99.90
13174;DHT22;6652;48.802;9.190;2023-04-25T13:34:33;12.90;99.90
13174;DHT22;6652;48.802;9.190;2023-04-25T13:37:03;13.10;99.90
13174;DHT22;6652;48.802;9.190;2023-04-25T13:39:32;13.30;99.90
13174;DHT22;6652;48.802;9.190;2023-04-25T13:42:34;13.30;99.90
13174;DHT22;6652;48.802;9.190;2023-04-25T13:45:22;13.30;99.90
13174;DHT22;6652;48.802;9.190;2023-04-25T13:48:03;13.00;99.90
13174;DHT22;6652;48.802;9.190;2023-04-25T13:50:32;12.90;99.90
13174;DHT22;6652;48.802;9.190;2023-04-25T13:53:33;13.00;99.90
13174;DHT22;6652;48.802;9.190;2023-04-25T13:56:36;13.00;99.90
13174;DHT22;6652;48.802;9.190;2023-04-25T13:59:45;13.20;99.90
13174;DHT22;6652;48.802;9.190;2023-04-25T14:02:28;13.50;99.90
13174;DHT22;6652;48.802;9.190;2023-04-25T14:05:14;13.80;99.90
13174;DHT22;6652;48.802;9.190;2023-04-25T14:07:50;13.90;99.90
13174;DHT22;6652;48.802;9.190;2023-04-25T14:10:36;13.80;99.90
13174;DHT22;6652;48.802;9.190;2023-04-25T14:13:12;13.60;99.90
13174;DHT22;6652;48.802;9.190;2023-04-25T14:15:46;13.30;99.90
13174;DHT22;6652;48.802;9.190;2023-04-25T14:18:19;13.40;99.90
13174;DHT22;6652;48.802;9.190;2023-04-25T14:20:46;13.40;99.90
13174;DHT22;6652;48.802;9.190;2023-04-25T14:23:14;13.50;99.90
13174;DHT22;6652;48.802;9.190;2023-04-25T14:25:46;13.70;99.90
13174;DHT22;6652;48.802;9.190;2023-04-25T14:28:26;14.00;99.90
13174;DHT22;6652;48.802;9.190;2023-04-25T14:30:58;13.80;99.90
13174;DHT22;6652;48.802;9.190;2023-04-25T14:33:26;13.80;99.90
13174;DHT22;6652;48.802;9.190;2023-04-25T14:35:57;13.70;99.90
13174;DHT22;6652;48.802;9.190;2023-04-25T14:38:28;13.70;99.90
13174;DHT22;6652;48.802;9.190;2023-04-25T14:40:58;13.70;99.90
13174;DHT22;6652;48.802;9.190;2023-04-25T14:43:30;13.70;99.90
13174;DHT22;6652;48.802;9.190;2023-04-25T14:46:05;13.80;99.90
13174;DHT22;6652;48.802;9.190;2023-04-25T14:48:50;14.00;99.90
13174;DHT22;6652;48.802;9.190;2023-04-25T14:51:21;14.20;99.90
13174;DHT22;6652;48.802;9.190;2023-04-25T14:53:50;14.10;99.90
13174;DHT22;6652;48.802;9.190;2023-04-25T14:56:22;14.10;99.90
13174;DHT22;6652;48.802;9.190;2023-04-25T14:58:58;14.00;99.90
13174;DHT22;6652;48.802;9.190;2023-04-25T15:01:41;13.80;99.90
13174;DHT22;6652;48.802;9.190;2023-04-25T15:04:28;13.50;99.90
13174;DHT22;6652;48.802;9.190;2023-04-25T15:07:18;13.40;99.90
13174;DHT22;6652;48.802;9.190;2023-04-25T15:09:49;13.30;99.90
13174;DHT22;6652;48.802;9.190;2023-04-25T15:12:19;13.20;99.90
13174;DHT22;6652;48.802;9.190;2023-04-25T15:14:59;13.20;99.90
13174;DHT22;6652;48.802;9.190;2023-04-25T15:17:29;13.00;99.90
13174;DHT22;6652;48.802;9.190;2023-04-25T15:19:58;13.00;99.90
13174;DHT22;6652;48.802;9.190;2023-04-25T15:22:26;12.90;99.90
13174;DHT22;6652;48.802;9.190;2023-04-25T15:24:56;13.00;99.90
13174;DHT22;6652;48.802;9.190;2023-04-25T15:27:28;13.10;99.90
13174;DHT22;6652;48.802;9.190;2023-04-25T15:30:00;13.20;99.90
13174;DHT22;6652;48.802;9.190;2023-04-25T15:32:39;13.40;99.90
13174;DHT22;6652;48.802;9.190;2023-04-25T15:35:17;13.40;99.90
13174;DHT22;6652;48.802;9.190;2023-04-25T15:37:49;13.30;99.90
13174;DHT22;6652;48.802;9.190;2023-04-25T15:40:23;13.30;99.90
13174;DHT22;6652;48.802;9.190;2023-04-25T15:42:57;13.20;99.90
13174;DHT22;6652;48.802;9.190;2023-04-25T15:45:27;13.10;99.90
13174;DHT22;6652;48.802;9.190;2023-04-25T15:47:56;13.10;99.90
13174;DHT22;6652;48.802;9.190;2023-04-25T15:50:26;13.00;99.90
13174;DHT22;6652;48.802;9.190;2023-04-25T15:52:58;12.80;99.90
13174;DHT22;6652;48.802;9.190;2023-04-25T15:55:29;12.70;99.90
13174;DHT22;6652;48.802;9.190;2023-04-25T15:58:05;12.60;99.90
13174;DHT22;6652;48.802;9.190;2023-04-25T16:00:32;12.50;99.90
13174;DHT22;6652;48.802;9.190;2023-04-25T16:03:06;12.50;99.90
13174;DHT22;6652;48.802;9.190;2023-04-25T16:05:38;12.60;99.90
13174;DHT22;6652;48.802;9.190;2023-04-25T16:08:09;12.50;99.90
13174;DHT22;6652;48.802;9.190;2023-04-25T16:11:02;12.70;99.90
13174;DHT22;6652;48.802;9.190;2023-04-25T16:13:39;12.80;99.90
13174;DHT22;6652;48.802;9.190;2023-04-25T16:16:15;12.70;99.90
13174;DHT22;6652;48.802;9.190;2023-04-25T16:18:43;12.50;99.90
13174;DHT22;6652;48.802;9.190;2023-04-25T16:21:11;12.40;99.90
13174;DHT22;6652;48.802;9.190;2023-04-25T16:23:41;12.30;99.90
13174;DHT22;6652;48.802;9.190;2023-04-25T16:26:16;12.20;99.90
13174;DHT22;6652;48.802;9.190;2023-04-25T16:28:51;12.20;99.90
13174;DHT22;6652;48.802;9.190;2023-04-25T16:31:19;12.30;99.90
13174;DHT22;6652;48.802;9.190;2023-04-25T16:33:52;12.20;99.90
13174;DHT22;6652;48.802;9.190;2023-04-25T16:36:21;12.20;99.90
13174;DHT22;6652;48.802;9.190;2023-04-25T16:38:48;12.30;99.90
13174;DHT22;6652;48.802;9.190;2023-04-25T16:41:18;12.30;99.90
13174;DHT22;6652;48.802;9.190;2023-04-25T16:43:46;12.30;99.90
13174;DHT22;6652;48.802;9.190;2023-04-25T16:46:20;12.20;99.90
13174;DHT22;6652;48.802;9.190;2023-04-25T16:48:48;12.20;99.90
13174;DHT22;6652;48.802;9.190;2023-04-25T16:51:17;12.30;99.90
13174;DHT22;6652;48.802;9.190;2023-04-25T16:53:47;12.20;99.90
13174;DHT22;6652;48.802;9.190;2023-04-25T16:56:17;12.20;99.90
13174;DHT22;6652;48.802;9.190;2023-04-25T16:58:51;12.00;99.90
13174;DHT22;6652;48.802;9.190;2023-04-25T17:01:25;11.70;99.90
13174;DHT22;6652;48.802;9.190;2023-04-25T17:03:56;11.90;99.90
13174;DHT22;6652;48.802;9.190;2023-04-25T17:06:28;11.90;99.90
13174;DHT22;6652;48.802;9.190;2023-04-25T17:09:02;11.80;99.90
13174;DHT22;6652;48.802;9.190;2023-04-25T17:11:30;11.60;99.90
13174;DHT22;6652;48.802;9.190;2023-04-25T17:13:58;11.60;99.90
13174;DHT22;6652;48.802;9.190;2023-04-25T17:16:33;11.70;99.90
13174;DHT22;6652;48.802;9.190;2023-04-25T17:19:04;11.40;99.90
13174;DHT22;6652;48.802;9.190;2023-04-25T17:21:33;11.30;99.90
13174;DHT22;6652;48.802;9.190;2023-04-25T17:24:05;11.20;99.90
13174;DHT22;6652;48.802;9.190;2023-04-25T17:26:34;11.20;99.90
13174;DHT22;6652;48.802;9.190;2023-04-25T17:29:02;11.10;99.90
13174;DHT22;6652;48.802;9.190;2023-04-25T17:31:35;11.10;99.90
13174;DHT22;6652;48.802;9.190;2023-04-25T17:34:05;11.00;99.90
13174;DHT22;6652;48.802;9.190;2023-04-25T17:36:38;11.00;99.90
13174;DHT22;6652;48.802;9.190;2023-04-25T17:39:14;10.80;99.90
13174;DHT22;6652;48.802;9.190;2023-04-25T17:41:52;10.80;99.90
13174;DHT22;6652;48.802;9.190;2023-04-25T17:44:19;10.60;99.90
13174;DHT22;6652;48.802;9.190;2023-04-25T17:46:52;10.60;99.90
13174;DHT22;6652;48.802;9.190;2023-04-25T17:49:19;10.60;99.90
13174;DHT22;6652;48.802;9.190;2023-04-25T17:51:50;10.30;99.90
13174;DHT22;6652;48.802;9.190;2023-04-25T17:54:17;10.10;99.90
13174;DHT22;6652;48.802;9.190;2023-04-25T17:56:47;10.00;99.90
13174;DHT22;6652;48.802;9.190;2023-04-25T17:59:22;9.80;99.90
13174;DHT22;6652;48.802;9.190;2023-04-25T18:01:56;9.60;99.90
13174;DHT22;6652;48.802;9.190;2023-04-25T18:04:28;9.50;99.90
13174;DHT22;6652;48.802;9.190;2023-04-25T18:07:00;9.40;99.90
13174;DHT22;6652;48.802;9.190;2023-04-25T18:09:41;9.30;99.90
13174;DHT22;6652;48.802;9.190;2023-04-25T18:12:25;9.20;99.90
13174;DHT22;6652;48.802;9.190;2023-04-25T18:14:55;9.00;99.90